sensor_id;sensor_type;location;lat;lon;timestamp;P1;durP1;ratioP1;P2;durP2;ratioP2
66972;SDS011;53902;51.466;-2.586;2023-04-21T00:01:35;6.75;;;2.50;;
66972;SDS011;53902;51.466;-2.586;2023-04-21T00:04:00;6.38;;;2.10;;
66972;SDS011;53902;51.466;-2.586;2023-04-21T00:06:26;6.18;;;2.13;;
66972;SDS011;53902;51.466;-2.586;2023-04-21T00:08:52;6.88;;;2.60;;
66972;SDS011;53902;51.466;-2.586;2023-04-21T00:11:18;6.45;;;2.42;;
66972;SDS011;53902;51.466;-2.586;2023-04-21T00:13:44;8.93;;;2.72;;
66972;SDS011;53902;51.466;-2.586;2023-04-21T00:16:09;4.93;;;2.40;;
66972;SDS011;53902;51.466;-2.586;2023-04-21T00:18:35;6.43;;;2.45;;
66972;SDS011;53902;51.466;-2.586;2023-04-21T00:21:01;7.55;;;2.13;;
66972;SDS011;53902;51.466;-2.586;2023-04-21T00:23:26;8.15;;;2.28;;
66972;SDS011;53902;51.466;-2.586;2023-04-21T00:25:55;4.82;;;2.15;;
66972;SDS011;53902;51.466;-2.586;2023-04-21T00:28:20;4.70;;;2.20;;
66972;SDS011;53902;51.466;-2.586;2023-04-21T00:30:46;6.80;;;2.80;;
66972;SDS011;53902;51.466;-2.586;2023-04-21T00:33:14;4.68;;;2.15;;
66972;SDS011;53902;51.466;-2.586;2023-04-21T00:35:39;8.02;;;2.78;;
66972;SDS011;53902;51.466;-2.586;2023-04-21T00:38:05;5.40;;;2.55;;
66972;SDS011;53902;51.466;-2.586;2023-04-21T00:40:30;5.47;;;2.90;;
66972;SDS011;53902;51.466;-2.586;2023-04-21T00:42:56;6.35;;;2.38;;
66972;SDS011;53902;51.466;-2.586;2023-04-21T00:45:21;8.75;;;2.67;;
66972;SDS011;53902;51.466;-2.586;2023-04-21T00:47:46;8.35;;;2.53;;
66972;SDS011;53902;51.466;-2.586;2023-04-21T00:50:12;5.22;;;2.47;;
66972;SDS011;53902;51.466;-2.586;2023-04-21T00:52:41;8.15;;;2.63;;
66972;SDS011;53902;51.466;-2.586;2023-04-21T00:55:08;6.53;;;2.67;;
66972;SDS011;53902;51.466;-2.586;2023-04-21T00:57:34;8.30;;;2.78;;
66972;SDS011;53902;51.466;-2.586;2023-04-21T01:00:01;8.98;;;2.90;;
66972;SDS011;53902;51.466;-2.586;2023-04-21T01:02:28;8.10;;;2.75;;
66972;SDS011;53902;51.466;-2.586;2023-04-21T01:04:54;6.30;;;2.92;;
66972;SDS011;53902;51.466;-2.586;2023-04-21T01:07:19;11.45;;;3.65;;
66972;SDS011;53902;51.466;-2.586;2023-04-21T01:09:44;6.72;;;3.17;;
66972;SDS011;53902;51.466;-2.586;2023-04-21T01:12:10;9.98;;;3.47;;
66972;SDS011;53902;51.466;-2.586;2023-04-21T01:14:37;8.93;;;3.50;;
66972;SDS011;53902;51.466;-2.586;2023-04-21T01:17:04;6.47;;;3.45;;
66972;SDS011;53902;51.466;-2.586;2023-04-21T01:19:31;12.73;;;3.80;;
66972;SDS011;53902;51.466;-2.586;2023-04-21T01:21:57;10.57;;;3.80;;
66972;SDS011;53902;51.466;-2.586;2023-04-21T01:24:33;9.07;;;3.60;;
66972;SDS011;53902;51.466;-2.586;2023-04-21T01:27:00;10.55;;;3.80;;
66972;SDS011;53902;51.466;-2.586;2023-04-21T01:29:25;10.63;;;4.13;;
66972;SDS011;53902;51.466;-2.586;2023-04-21T01:31:50;10.05;;;4.10;;
66972;SDS011;53902;51.466;-2.586;2023-04-21T01:34:16;11.18;;;3.58;;
66972;SDS011;53902;51.466;-2.586;2023-04-21T01:36:41;7.57;;;3.70;;
66972;SDS011;53902;51.466;-2.586;2023-04-21T01:39:07;10.20;;;3.65;;
66972;SDS011;53902;51.466;-2.586;2023-04-21T01:41:32;9.27;;;3.30;;
66972;SDS011;53902;51.466;-2.586;2023-04-21T01:43:57;8.88;;;3.50;;
66972;SDS011;53902;51.466;-2.586;2023-04-21T01:46:23;14.10;;;3.90;;
66972;SDS011;53902;51.466;-2.586;2023-04-21T01:48:48;7.07;;;3.47;;
66972;SDS011;53902;51.466;-2.586;2023-04-21T01:51:14;11.27;;;3.63;;
66972;SDS011;53902;51.466;-2.586;2023-04-21T01:53:39;9.57;;;3.40;;
66972;SDS011;53902;51.466;-2.586;2023-04-21T01:56:05;8.70;;;3.75;;
66972;SDS011;53902;51.466;-2.586;2023-04-21T01:58:30;8.48;;;3.63;;
66972;SDS011;53902;51.466;-2.586;2023-04-21T02:00:56;9.35;;;3.92;;
66972;SDS011;53902;51.466;-2.586;2023-04-21T02:03:21;8.45;;;3.90;;
66972;SDS011;53902;51.466;-2.586;2023-04-21T02:05:48;10.63;;;3.90;;
66972;SDS011;53902;51.466;-2.586;2023-04-21T02:08:15;8.38;;;3.65;;
66972;SDS011;53902;51.466;-2.586;2023-04-21T02:10:41;7.20;;;3.80;;
66972;SDS011;53902;51.466;-2.586;2023-04-21T02:13:06;8.27;;;3.40;;
66972;SDS011;53902;51.466;-2.586;2023-04-21T02:15:32;10.93;;;3.75;;
66972;SDS011;53902;51.466;-2.586;2023-04-21T02:17:57;9.23;;;4.03;;
66972;SDS011;53902;51.466;-2.586;2023-04-21T02:20:23;11.88;;;3.97;;
66972;SDS011;53902;51.466;-2.586;2023-04-21T02:22:48;7.15;;;4.05;;
66972;SDS011;53902;51.466;-2.586;2023-04-21T02:25:13;7.80;;;3.60;;
66972;SDS011;53902;51.466;-2.586;2023-04-21T02:27:39;12.60;;;4.90;;
66972;SDS011;53902;51.466;-2.586;2023-04-21T02:30:04;9.23;;;3.70;;
66972;SDS011;53902;51.466;-2.586;2023-04-21T02:32:33;12.23;;;4.20;;
66972;SDS011;53902;51.466;-2.586;2023-04-21T02:34:58;8.32;;;3.85;;
66972;SDS011;53902;51.466;-2.586;2023-04-21T02:37:24;12.10;;;4.10;;
66972;SDS011;53902;51.466;-2.586;2023-04-21T02:39:50;8.20;;;3.88;;
66972;SDS011;53902;51.466;-2.586;2023-04-21T02:42:16;11.20;;;4.43;;
66972;SDS011;53902;51.466;-2.586;2023-04-21T02:44:41;13.93;;;4.97;;
66972;SDS011;53902;51.466;-2.586;2023-04-21T02:47:07;12.27;;;4.85;;
66972;SDS011;53902;51.466;-2.586;2023-04-21T02:49:32;11.15;;;4.60;;
66972;SDS011;53902;51.466;-2.586;2023-04-21T02:51:58;14.02;;;4.20;;
66972;SDS011;53902;51.466;-2.586;2023-04-21T02:54:23;13.18;;;5.30;;
66972;SDS011;53902;51.466;-2.586;2023-04-21T02:56:48;10.27;;;5.18;;
66972;SDS011;53902;51.466;-2.586;2023-04-21T02:59:14;7.35;;;5.00;;
66972;SDS011;53902;51.466;-2.586;2023-04-21T03:01:40;20.85;;;5.72;;
66972;SDS011;53902;51.466;-2.586;2023-04-21T03:04:06;11.57;;;4.75;;
66972;SDS011;53902;51.466;-2.586;2023-04-21T03:06:31;9.95;;;5.22;;
66972;SDS011;53902;51.466;-2.586;2023-04-21T03:08:57;8.13;;;4.32;;
66972;SDS011;53902;51.466;-2.586;2023-04-21T03:11:23;12.93;;;4.82;;
66972;SDS011;53902;51.466;-2.586;2023-04-21T03:13:48;9.20;;;4.80;;
66972;SDS011;53902;51.466;-2.586;2023-04-21T03:16:13;9.70;;;4.28;;
66972;SDS011;53902;51.466;-2.586;2023-04-21T03:18:39;14.75;;;5.05;;
66972;SDS011;53902;51.466;-2.586;2023-04-21T03:21:05;9.80;;;4.45;;
66972;SDS011;53902;51.466;-2.586;2023-04-21T03:23:30;10.32;;;5.00;;
66972;SDS011;53902;51.466;-2.586;2023-04-21T03:25:56;10.18;;;4.35;;
66972;SDS011;53902;51.466;-2.586;2023-04-21T03:28:21;14.23;;;4.97;;
66972;SDS011;53902;51.466;-2.586;2023-04-21T03:30:46;8.93;;;4.68;;
66972;SDS011;53902;51.466;-2.586;2023-04-21T03:33:12;10.00;;;4.78;;
66972;SDS011;53902;51.466;-2.586;2023-04-21T03:35:37;8.25;;;4.72;;
66972;SDS011;53902;51.466;-2.586;2023-04-21T03:38:03;11.85;;;4.78;;
66972;SDS011;53902;51.466;-2.586;2023-04-21T03:40:28;11.18;;;4.70;;
66972;SDS011;53902;51.466;-2.586;2023-04-21T03:42:54;9.25;;;4.55;;
66972;SDS011;53902;51.466;-2.586;2023-04-21T03:45:19;11.88;;;4.97;;
66972;SDS011;53902;51.466;-2.586;2023-04-21T03:47:46;11.00;;;4.50;;
66972;SDS011;53902;51.466;-2.586;2023-04-21T03:50:12;10.13;;;5.68;;
66972;SDS011;53902;51.466;-2.586;2023-04-21T03:52:38;8.15;;;4.45;;
66972;SDS011;53902;51.466;-2.586;2023-04-21T03:55:04;9.23;;;5.13;;
66972;SDS011;53902;51.466;-2.586;2023-04-21T03:57:32;12.48;;;4.97;;
66972;SDS011;53902;51.466;-2.586;2023-04-21T03:59:58;9.73;;;4.22;;
66972;SDS011;53902;51.466;-2.586;2023-04-21T04:02:23;9.70;;;4.53;;
66972;SDS011;53902;51.466;-2.586;2023-04-21T04:04:49;13.32;;;5.05;;
66972;SDS011;53902;51.466;-2.586;2023-04-21T04:07:14;11.27;;;5.50;;
66972;SDS011;53902;51.466;-2.586;2023-04-21T04:09:41;15.50;;;4.80;;
66972;SDS011;53902;51.466;-2.586;2023-04-21T04:12:07;9.85;;;5.15;;
66972;SDS011;53902;51.466;-2.586;2023-04-21T04:14:33;10.30;;;5.10;;
66972;SDS011;53902;51.466;-2.586;2023-04-21T04:16:58;9.60;;;5.05;;
66972;SDS011;53902;51.466;-2.586;2023-04-21T04:19:28;11.75;;;5.28;;
66972;SDS011;53902;51.466;-2.586;2023-04-21T04:21:56;11.30;;;5.57;;
66972;SDS011;53902;51.466;-2.586;2023-04-21T04:24:22;13.23;;;5.07;;
66972;SDS011;53902;51.466;-2.586;2023-04-21T04:26:48;12.20;;;5.13;;
66972;SDS011;53902;51.466;-2.586;2023-04-21T04:29:14;10.68;;;5.20;;
66972;SDS011;53902;51.466;-2.586;2023-04-21T04:31:40;12.52;;;4.90;;
66972;SDS011;53902;51.466;-2.586;2023-04-21T04:34:05;13.43;;;5.13;;
66972;SDS011;53902;51.466;-2.586;2023-04-21T04:36:31;10.95;;;4.93;;
66972;SDS011;53902;51.466;-2.586;2023-04-21T04:38:57;10.90;;;5.30;;
66972;SDS011;53902;51.466;-2.586;2023-04-21T04:41:23;15.77;;;5.28;;
66972;SDS011;53902;51.466;-2.586;2023-04-21T04:43:48;13.82;;;5.30;;
66972;SDS011;53902;51.466;-2.586;2023-04-21T04:46:14;10.77;;;5.30;;
66972;SDS011;53902;51.466;-2.586;2023-04-21T04:48:39;13.63;;;5.50;;
66972;SDS011;53902;51.466;-2.586;2023-04-21T04:51:05;10.40;;;5.35;;
66972;SDS011;53902;51.466;-2.586;2023-04-21T04:53:31;14.13;;;5.63;;
66972;SDS011;53902;51.466;-2.586;2023-04-21T04:58:54;13.80;;;5.45;;
66972;SDS011;53902;51.466;-2.586;2023-04-21T05:01:19;15.85;;;6.10;;
66972;SDS011;53902;51.466;-2.586;2023-04-21T05:03:45;15.15;;;4.97;;
66972;SDS011;53902;51.466;-2.586;2023-04-21T05:06:10;11.95;;;5.85;;
66972;SDS011;53902;51.466;-2.586;2023-04-21T05:08:37;13.02;;;5.50;;
66972;SDS011;53902;51.466;-2.586;2023-04-21T05:11:05;14.45;;;5.15;;
66972;SDS011;53902;51.466;-2.586;2023-04-21T05:13:30;12.70;;;5.47;;
66972;SDS011;53902;51.466;-2.586;2023-04-21T05:15:56;10.77;;;5.70;;
66972;SDS011;53902;51.466;-2.586;2023-04-21T05:18:22;12.70;;;5.32;;
66972;SDS011;53902;51.466;-2.586;2023-04-21T05:20:48;10.95;;;5.15;;
66972;SDS011;53902;51.466;-2.586;2023-04-21T05:23:13;17.83;;;6.00;;
66972;SDS011;53902;51.466;-2.586;2023-04-21T05:25:38;13.77;;;5.80;;
66972;SDS011;53902;51.466;-2.586;2023-04-21T05:28:04;11.05;;;5.75;;
66972;SDS011;53902;51.466;-2.586;2023-04-21T05:30:29;12.45;;;6.07;;
66972;SDS011;53902;51.466;-2.586;2023-04-21T05:35:31;11.82;;;5.40;;
66972;SDS011;53902;51.466;-2.586;2023-04-21T05:37:57;10.45;;;4.75;;
66972;SDS011;53902;51.466;-2.586;2023-04-21T05:40:23;12.93;;;5.68;;
66972;SDS011;53902;51.466;-2.586;2023-04-21T05:42:48;14.93;;;5.70;;
66972;SDS011;53902;51.466;-2.586;2023-04-21T05:45:13;15.80;;;5.80;;
66972;SDS011;53902;51.466;-2.586;2023-04-21T05:47:39;12.20;;;5.65;;
66972;SDS011;53902;51.466;-2.586;2023-04-21T05:50:05;14.60;;;5.30;;
66972;SDS011;53902;51.466;-2.586;2023-04-21T05:52:31;14.73;;;5.85;;
66972;SDS011;53902;51.466;-2.586;2023-04-21T05:54:57;11.77;;;5.55;;
66972;SDS011;53902;51.466;-2.586;2023-04-21T05:57:23;9.70;;;5.47;;
66972;SDS011;53902;51.466;-2.586;2023-04-21T05:59:49;11.38;;;5.93;;
66972;SDS011;53902;51.466;-2.586;2023-04-21T06:02:14;14.15;;;5.60;;
66972;SDS011;53902;51.466;-2.586;2023-04-21T06:04:40;13.60;;;5.70;;
66972;SDS011;53902;51.466;-2.586;2023-04-21T06:07:06;15.50;;;6.40;;
66972;SDS011;53902;51.466;-2.586;2023-04-21T06:09:32;12.37;;;5.53;;
66972;SDS011;53902;51.466;-2.586;2023-04-21T06:11:59;13.27;;;6.05;;
66972;SDS011;53902;51.466;-2.586;2023-04-21T06:14:24;11.52;;;5.70;;
66972;SDS011;53902;51.466;-2.586;2023-04-21T06:16:50;13.57;;;5.75;;
66972;SDS011;53902;51.466;-2.586;2023-04-21T06:19:15;14.82;;;5.72;;
66972;SDS011;53902;51.466;-2.586;2023-04-21T06:21:41;11.23;;;5.80;;
66972;SDS011;53902;51.466;-2.586;2023-04-21T06:24:06;17.45;;;6.22;;
66972;SDS011;53902;51.466;-2.586;2023-04-21T06:26:32;11.95;;;6.63;;
66972;SDS011;53902;51.466;-2.586;2023-04-21T06:28:57;11.82;;;5.55;;
66972;SDS011;53902;51.466;-2.586;2023-04-21T06:31:22;15.32;;;6.18;;
66972;SDS011;53902;51.466;-2.586;2023-04-21T06:33:48;9.85;;;5.82;;
66972;SDS011;53902;51.466;-2.586;2023-04-21T06:36:13;14.20;;;6.43;;
66972;SDS011;53902;51.466;-2.586;2023-04-21T06:38:40;15.55;;;6.18;;
66972;SDS011;53902;51.466;-2.586;2023-04-21T06:41:07;14.48;;;5.82;;
66972;SDS011;53902;51.466;-2.586;2023-04-21T06:43:35;13.40;;;6.22;;
66972;SDS011;53902;51.466;-2.586;2023-04-21T06:46:00;16.92;;;6.30;;
66972;SDS011;53902;51.466;-2.586;2023-04-21T06:48:26;13.82;;;7.03;;
66972;SDS011;53902;51.466;-2.586;2023-04-21T06:53:19;21.30;;;7.53;;
66972;SDS011;53902;51.466;-2.586;2023-04-21T06:55:45;13.00;;;7.03;;
66972;SDS011;53902;51.466;-2.586;2023-04-21T06:58:11;15.38;;;6.70;;
66972;SDS011;53902;51.466;-2.586;2023-04-21T07:00:37;14.95;;;6.40;;
66972;SDS011;53902;51.466;-2.586;2023-04-21T07:03:02;19.88;;;8.13;;
66972;SDS011;53902;51.466;-2.586;2023-04-21T07:05:28;16.98;;;7.70;;
66972;SDS011;53902;51.466;-2.586;2023-04-21T07:07:53;14.23;;;7.20;;
66972;SDS011;53902;51.466;-2.586;2023-04-21T07:10:23;16.33;;;6.75;;
66972;SDS011;53902;51.466;-2.586;2023-04-21T07:12:51;11.27;;;6.03;;
66972;SDS011;53902;51.466;-2.586;2023-04-21T07:15:17;17.88;;;7.38;;
66972;SDS011;53902;51.466;-2.586;2023-04-21T07:17:43;15.85;;;7.03;;
66972;SDS011;53902;51.466;-2.586;2023-04-21T07:20:08;13.65;;;7.20;;
66972;SDS011;53902;51.466;-2.586;2023-04-21T07:22:37;22.98;;;7.13;;
66972;SDS011;53902;51.466;-2.586;2023-04-21T07:25:02;12.57;;;6.65;;
66972;SDS011;53902;51.466;-2.586;2023-04-21T07:27:30;13.50;;;6.53;;
66972;SDS011;53902;51.466;-2.586;2023-04-21T07:29:56;14.88;;;6.95;;
66972;SDS011;53902;51.466;-2.586;2023-04-21T07:32:22;13.77;;;6.38;;
66972;SDS011;53902;51.466;-2.586;2023-04-21T07:34:47;14.73;;;6.85;;
66972;SDS011;53902;51.466;-2.586;2023-04-21T07:37:13;15.20;;;6.72;;
66972;SDS011;53902;51.466;-2.586;2023-04-21T07:39:40;20.80;;;7.13;;
66972;SDS011;53902;51.466;-2.586;2023-04-21T07:42:05;15.88;;;7.20;;
66972;SDS011;53902;51.466;-2.586;2023-04-21T07:44:32;21.70;;;7.57;;
66972;SDS011;53902;51.466;-2.586;2023-04-21T07:46:58;14.82;;;7.47;;
66972;SDS011;53902;51.466;-2.586;2023-04-21T07:49:23;17.67;;;7.47;;
66972;SDS011;53902;51.466;-2.586;2023-04-21T07:51:49;27.15;;;7.95;;
66972;SDS011;53902;51.466;-2.586;2023-04-21T07:54:14;16.75;;;7.65;;
66972;SDS011;53902;51.466;-2.586;2023-04-21T07:56:40;18.23;;;8.52;;
66972;SDS011;53902;51.466;-2.586;2023-04-21T07:59:05;18.60;;;8.52;;
66972;SDS011;53902;51.466;-2.586;2023-04-21T08:01:30;15.57;;;8.00;;
66972;SDS011;53902;51.466;-2.586;2023-04-21T08:03:56;21.52;;;8.13;;
66972;SDS011;53902;51.466;-2.586;2023-04-21T08:06:21;20.02;;;8.00;;
66972;SDS011;53902;51.466;-2.586;2023-04-21T08:08:47;20.00;;;8.00;;
66972;SDS011;53902;51.466;-2.586;2023-04-21T08:11:12;20.15;;;8.65;;
66972;SDS011;53902;51.466;-2.586;2023-04-21T08:13:37;19.88;;;8.38;;
66972;SDS011;53902;51.466;-2.586;2023-04-21T08:16:03;24.98;;;8.95;;
66972;SDS011;53902;51.466;-2.586;2023-04-21T08:18:28;19.33;;;8.65;;
66972;SDS011;53902;51.466;-2.586;2023-04-21T08:20:55;24.77;;;8.77;;
66972;SDS011;53902;51.466;-2.586;2023-04-21T08:23:21;19.67;;;9.35;;
66972;SDS011;53902;51.466;-2.586;2023-04-21T08:25:47;19.17;;;8.98;;
66972;SDS011;53902;51.466;-2.586;2023-04-21T08:28:12;19.98;;;8.73;;
66972;SDS011;53902;51.466;-2.586;2023-04-21T08:30:39;22.52;;;8.85;;
66972;SDS011;53902;51.466;-2.586;2023-04-21T08:33:05;21.13;;;7.72;;
66972;SDS011;53902;51.466;-2.586;2023-04-21T08:35:32;16.55;;;8.18;;
66972;SDS011;53902;51.466;-2.586;2023-04-21T08:37:58;16.02;;;8.00;;
66972;SDS011;53902;51.466;-2.586;2023-04-21T08:40:33;22.40;;;8.40;;
66972;SDS011;53902;51.466;-2.586;2023-04-21T08:43:00;20.48;;;8.75;;
66972;SDS011;53902;51.466;-2.586;2023-04-21T08:45:26;16.00;;;8.13;;
66972;SDS011;53902;51.466;-2.586;2023-04-21T08:47:52;15.23;;;7.68;;
66972;SDS011;53902;51.466;-2.586;2023-04-21T08:50:19;14.77;;;7.55;;
66972;SDS011;53902;51.466;-2.586;2023-04-21T08:52:45;17.52;;;7.88;;
66972;SDS011;53902;51.466;-2.586;2023-04-21T08:55:10;15.95;;;6.75;;
66972;SDS011;53902;51.466;-2.586;2023-04-21T08:57:37;15.80;;;6.70;;
66972;SDS011;53902;51.466;-2.586;2023-04-21T09:00:03;15.27;;;7.15;;
66972;SDS011;53902;51.466;-2.586;2023-04-21T09:02:28;15.50;;;6.93;;
66972;SDS011;53902;51.466;-2.586;2023-04-21T09:04:54;11.88;;;6.57;;
66972;SDS011;53902;51.466;-2.586;2023-04-21T09:07:33;14.73;;;7.40;;
66972;SDS011;53902;51.466;-2.586;2023-04-21T09:10:00;15.05;;;7.72;;
66972;SDS011;53902;51.466;-2.586;2023-04-21T09:12:25;14.85;;;7.50;;
66972;SDS011;53902;51.466;-2.586;2023-04-21T09:14:51;13.20;;;7.68;;
66972;SDS011;53902;51.466;-2.586;2023-04-21T09:17:20;13.77;;;7.20;;
66972;SDS011;53902;51.466;-2.586;2023-04-21T09:19:47;12.38;;;7.25;;
66972;SDS011;53902;51.466;-2.586;2023-04-21T09:22:13;10.48;;;6.82;;
66972;SDS011;53902;51.466;-2.586;2023-04-21T09:24:45;10.52;;;6.35;;
66972;SDS011;53902;51.466;-2.586;2023-04-21T09:27:13;12.50;;;6.82;;
66972;SDS011;53902;51.466;-2.586;2023-04-21T09:29:44;13.90;;;7.03;;
66972;SDS011;53902;51.466;-2.586;2023-04-21T09:32:11;13.07;;;6.50;;
66972;SDS011;53902;51.466;-2.586;2023-04-21T09:34:36;10.30;;;6.45;;
66972;SDS011;53902;51.466;-2.586;2023-04-21T09:37:05;10.63;;;5.78;;
66972;SDS011;53902;51.466;-2.586;2023-04-21T09:39:31;9.55;;;6.45;;
66972;SDS011;53902;51.466;-2.586;2023-04-21T09:41:57;9.70;;;6.47;;
66972;SDS011;53902;51.466;-2.586;2023-04-21T09:44:23;11.65;;;7.13;;
66972;SDS011;53902;51.466;-2.586;2023-04-21T09:46:50;13.07;;;7.30;;
66972;SDS011;53902;51.466;-2.586;2023-04-21T09:49:21;12.07;;;6.50;;
66972;SDS011;53902;51.466;-2.586;2023-04-21T09:51:47;8.95;;;6.63;;
66972;SDS011;53902;51.466;-2.586;2023-04-21T09:54:16;9.15;;;6.35;;
66972;SDS011;53902;51.466;-2.586;2023-04-21T09:56:47;11.68;;;6.15;;
66972;SDS011;53902;51.466;-2.586;2023-04-21T09:59:16;12.77;;;5.85;;
66972;SDS011;53902;51.466;-2.586;2023-04-21T10:01:43;9.80;;;6.38;;
66972;SDS011;53902;51.466;-2.586;2023-04-21T10:04:12;12.02;;;6.45;;
66972;SDS011;53902;51.466;-2.586;2023-04-21T10:06:37;10.85;;;6.57;;
66972;SDS011;53902;51.466;-2.586;2023-04-21T10:09:03;9.90;;;6.25;;
66972;SDS011;53902;51.466;-2.586;2023-04-21T10:11:30;10.80;;;6.15;;
66972;SDS011;53902;51.466;-2.586;2023-04-21T10:13:58;8.55;;;6.15;;
66972;SDS011;53902;51.466;-2.586;2023-04-21T10:16:23;9.73;;;5.90;;
66972;SDS011;53902;51.466;-2.586;2023-04-21T10:18:50;8.75;;;5.88;;
66972;SDS011;53902;51.466;-2.586;2023-04-21T10:21:17;9.38;;;6.18;;
66972;SDS011;53902;51.466;-2.586;2023-04-21T10:23:49;11.43;;;6.40;;
66972;SDS011;53902;51.466;-2.586;2023-04-21T10:36:32;8.70;;;5.07;;
66972;SDS011;53902;51.466;-2.586;2023-04-21T10:41:54;7.82;;;5.55;;
66972;SDS011;53902;51.466;-2.586;2023-04-21T10:44:22;9.18;;;5.63;;
66972;SDS011;53902;51.466;-2.586;2023-04-21T10:46:49;9.23;;;6.25;;
66972;SDS011;53902;51.466;-2.586;2023-04-21T10:49:25;9.75;;;5.95;;
66972;SDS011;53902;51.466;-2.586;2023-04-21T10:54:24;56.83;;;7.05;;
66972;SDS011;53902;51.466;-2.586;2023-04-21T10:56:51;8.68;;;5.90;;
66972;SDS011;53902;51.466;-2.586;2023-04-21T10:59:18;9.70;;;6.32;;
66972;SDS011;53902;51.466;-2.586;2023-04-21T11:01:44;10.15;;;6.47;;
66972;SDS011;53902;51.466;-2.586;2023-04-21T11:04:13;10.90;;;5.68;;
66972;SDS011;53902;51.466;-2.586;2023-04-21T11:07:06;9.10;;;5.80;;
66972;SDS011;53902;51.466;-2.586;2023-04-21T11:09:37;8.57;;;5.40;;
66972;SDS011;53902;51.466;-2.586;2023-04-21T11:14:31;6.68;;;5.05;;
66972;SDS011;53902;51.466;-2.586;2023-04-21T11:16:59;10.30;;;5.65;;
66972;SDS011;53902;51.466;-2.586;2023-04-21T11:19:26;7.40;;;4.78;;
66972;SDS011;53902;51.466;-2.586;2023-04-21T11:21:52;7.05;;;4.45;;
66972;SDS011;53902;51.466;-2.586;2023-04-21T11:24:19;7.88;;;4.93;;
66972;SDS011;53902;51.466;-2.586;2023-04-21T11:26:45;7.60;;;4.95;;
66972;SDS011;53902;51.466;-2.586;2023-04-21T11:29:10;7.00;;;4.45;;
66972;SDS011;53902;51.466;-2.586;2023-04-21T11:31:37;6.30;;;4.30;;
66972;SDS011;53902;51.466;-2.586;2023-04-21T11:34:05;5.65;;;4.07;;
66972;SDS011;53902;51.466;-2.586;2023-04-21T11:36:41;6.57;;;4.55;;
66972;SDS011;53902;51.466;-2.586;2023-04-21T11:39:09;7.72;;;4.65;;
66972;SDS011;53902;51.466;-2.586;2023-04-21T11:44:03;5.70;;;4.10;;
66972;SDS011;53902;51.466;-2.586;2023-04-21T11:46:28;4.68;;;3.75;;
66972;SDS011;53902;51.466;-2.586;2023-04-21T11:49:01;5.53;;;3.92;;
66972;SDS011;53902;51.466;-2.586;2023-04-21T11:51:41;5.55;;;3.95;;
66972;SDS011;53902;51.466;-2.586;2023-04-21T11:54:10;6.73;;;4.03;;
66972;SDS011;53902;51.466;-2.586;2023-04-21T11:56:40;5.93;;;3.85;;
66972;SDS011;53902;51.466;-2.586;2023-04-21T11:59:08;5.55;;;3.92;;
66972;SDS011;53902;51.466;-2.586;2023-04-21T12:01:33;5.63;;;4.00;;
66972;SDS011;53902;51.466;-2.586;2023-04-21T12:03:59;6.15;;;4.03;;
66972;SDS011;53902;51.466;-2.586;2023-04-21T12:06:27;5.53;;;3.90;;
66972;SDS011;53902;51.466;-2.586;2023-04-21T12:08:59;8.27;;;4.18;;
66972;SDS011;53902;51.466;-2.586;2023-04-21T12:11:29;5.90;;;4.40;;
66972;SDS011;53902;51.466;-2.586;2023-04-21T12:13:57;7.22;;;4.13;;
66972;SDS011;53902;51.466;-2.586;2023-04-21T12:16:26;5.28;;;3.80;;
66972;SDS011;53902;51.466;-2.586;2023-04-21T12:18:55;4.80;;;3.28;;
66972;SDS011;53902;51.466;-2.586;2023-04-21T12:21:25;5.80;;;3.60;;
66972;SDS011;53902;51.466;-2.586;2023-04-21T12:23:51;4.32;;;3.20;;
66972;SDS011;53902;51.466;-2.586;2023-04-21T12:26:17;5.03;;;3.30;;
66972;SDS011;53902;51.466;-2.586;2023-04-21T12:28:43;5.50;;;3.35;;
66972;SDS011;53902;51.466;-2.586;2023-04-21T12:31:08;5.05;;;3.95;;
66972;SDS011;53902;51.466;-2.586;2023-04-21T12:33:33;6.80;;;4.38;;
66972;SDS011;53902;51.466;-2.586;2023-04-21T12:35:59;6.88;;;4.32;;
66972;SDS011;53902;51.466;-2.586;2023-04-21T12:38:24;6.55;;;4.00;;
66972;SDS011;53902;51.466;-2.586;2023-04-21T12:40:50;5.22;;;4.35;;
66972;SDS011;53902;51.466;-2.586;2023-04-21T12:43:17;5.93;;;4.40;;
66972;SDS011;53902;51.466;-2.586;2023-04-21T12:45:42;7.00;;;4.53;;
66972;SDS011;53902;51.466;-2.586;2023-04-21T12:48:07;5.00;;;3.95;;
66972;SDS011;53902;51.466;-2.586;2023-04-21T12:50:33;5.32;;;4.20;;
66972;SDS011;53902;51.466;-2.586;2023-04-21T12:52:58;8.68;;;4.57;;
66972;SDS011;53902;51.466;-2.586;2023-04-21T12:55:24;5.05;;;4.15;;
66972;SDS011;53902;51.466;-2.586;2023-04-21T12:57:49;6.07;;;3.60;;
66972;SDS011;53902;51.466;-2.586;2023-04-21T13:00:16;5.72;;;3.78;;
66972;SDS011;53902;51.466;-2.586;2023-04-21T13:02:42;5.05;;;4.15;;
66972;SDS011;53902;51.466;-2.586;2023-04-21T13:05:08;5.45;;;4.40;;
66972;SDS011;53902;51.466;-2.586;2023-04-21T13:07:35;6.93;;;4.72;;
66972;SDS011;53902;51.466;-2.586;2023-04-21T13:10:01;7.50;;;4.75;;
66972;SDS011;53902;51.466;-2.586;2023-04-21T13:12:31;7.05;;;4.60;;
66972;SDS011;53902;51.466;-2.586;2023-04-21T13:14:57;7.75;;;4.90;;
66972;SDS011;53902;51.466;-2.586;2023-04-21T13:17:22;5.93;;;4.68;;
66972;SDS011;53902;51.466;-2.586;2023-04-21T13:19:48;6.32;;;4.55;;
66972;SDS011;53902;51.466;-2.586;2023-04-21T13:22:13;7.60;;;4.38;;
66972;SDS011;53902;51.466;-2.586;2023-04-21T13:24:38;6.53;;;4.47;;
66972;SDS011;53902;51.466;-2.586;2023-04-21T13:27:04;6.45;;;4.43;;
66972;SDS011;53902;51.466;-2.586;2023-04-21T13:29:29;6.18;;;4.10;;
66972;SDS011;53902;51.466;-2.586;2023-04-21T13:31:58;8.25;;;4.47;;
66972;SDS011;53902;51.466;-2.586;2023-04-21T13:34:25;6.35;;;4.38;;
66972;SDS011;53902;51.466;-2.586;2023-04-21T13:36:50;6.68;;;4.57;;
66972;SDS011;53902;51.466;-2.586;2023-04-21T13:39:16;5.72;;;3.78;;
66972;SDS011;53902;51.466;-2.586;2023-04-21T13:41:41;4.93;;;4.25;;
66972;SDS011;53902;51.466;-2.586;2023-04-21T13:44:07;5.63;;;4.20;;
66972;SDS011;53902;51.466;-2.586;2023-04-21T13:46:32;6.10;;;4.22;;
66972;SDS011;53902;51.466;-2.586;2023-04-21T13:48:57;5.65;;;4.25;;
66972;SDS011;53902;51.466;-2.586;2023-04-21T13:51:23;5.78;;;4.45;;
66972;SDS011;53902;51.466;-2.586;2023-04-21T13:53:49;6.43;;;4.13;;
66972;SDS011;53902;51.466;-2.586;2023-04-21T13:56:15;6.22;;;4.28;;
66972;SDS011;53902;51.466;-2.586;2023-04-21T13:58:41;8.05;;;4.25;;
66972;SDS011;53902;51.466;-2.586;2023-04-21T14:01:06;5.70;;;4.30;;
66972;SDS011;53902;51.466;-2.586;2023-04-21T14:03:32;4.45;;;3.88;;
66972;SDS011;53902;51.466;-2.586;2023-04-21T14:05:57;5.97;;;3.95;;
66972;SDS011;53902;51.466;-2.586;2023-04-21T14:08:23;5.90;;;3.60;;
66972;SDS011;53902;51.466;-2.586;2023-04-21T14:10:48;5.60;;;4.00;;
66972;SDS011;53902;51.466;-2.586;2023-04-21T14:13:13;5.43;;;4.00;;
66972;SDS011;53902;51.466;-2.586;2023-04-21T14:15:39;4.75;;;3.90;;
66972;SDS011;53902;51.466;-2.586;2023-04-21T14:18:04;6.57;;;4.60;;
66972;SDS011;53902;51.466;-2.586;2023-04-21T14:20:30;6.32;;;4.15;;
66972;SDS011;53902;51.466;-2.586;2023-04-21T14:22:55;7.47;;;4.28;;
66972;SDS011;53902;51.466;-2.586;2023-04-21T14:25:21;5.15;;;3.65;;
66972;SDS011;53902;51.466;-2.586;2023-04-21T14:27:46;6.22;;;4.25;;
66972;SDS011;53902;51.466;-2.586;2023-04-21T14:30:12;5.00;;;3.22;;
66972;SDS011;53902;51.466;-2.586;2023-04-21T14:32:38;8.63;;;4.20;;
66972;SDS011;53902;51.466;-2.586;2023-04-21T14:35:09;4.25;;;3.67;;
66972;SDS011;53902;51.466;-2.586;2023-04-21T14:37:38;6.05;;;4.15;;
66972;SDS011;53902;51.466;-2.586;2023-04-21T14:40:04;4.78;;;3.90;;
66972;SDS011;53902;51.466;-2.586;2023-04-21T14:42:31;4.38;;;3.47;;
66972;SDS011;53902;51.466;-2.586;2023-04-21T14:44:57;5.57;;;3.83;;
66972;SDS011;53902;51.466;-2.586;2023-04-21T14:47:24;6.18;;;3.50;;
66972;SDS011;53902;51.466;-2.586;2023-04-21T14:49:50;5.88;;;4.03;;
66972;SDS011;53902;51.466;-2.586;2023-04-21T14:52:20;5.67;;;4.00;;